OOCL Nagoya — VRFX8 — position and weather

sailwx.info

Track history (hours):
 
Tides and Currents Weather Stations Pressure Air Temp Water Temp Dewpoint Dewpoint Depression Visibility Wind Speed Wind Dir Waves Ship Positions

OOCL Nagoya

Last reported at 2017-Mar-27 22:05 UTC. Time now 2017-Mar-28 17:50 UTC.
Position N 34°55' E 139°22'.

Length 261 m; draft 10.1 m.

Type: Cargo ship. MMSI: 477627900.

Date/timePositionNaut miles runAvg speedWind from/ knotsBaromVisibWave heightAir tempDewpointWater temp
2017-Mar-27 22:05N 34°55' E 139°22'1121.2
2017-Mar-27 21:33N 35°01' E 139°33'1716.6
2017-Mar-27 20:33N 35°14' E 139°46'1212.1
2017-Mar-27 19:33N 35°26' E 139°45'1010.3
2017-Mar-27 18:34N 35°36' E 139°47'0 0.2
2017-Mar-27 17:29N 35°36' E 139°47'0 0.0
2017-Mar-27 16:32N 35°36' E 139°47'0 0.0
2017-Mar-27 15:32N 35°36' E 139°47'0 0.0
2017-Mar-27 14:32N 35°36' E 139°47'0 0.0
2017-Mar-27 13:23N 35°36' E 139°47'0 0.0
2017-Mar-27 12:32N 35°36' E 139°47'0 0.0
2017-Mar-27 11:29N 35°36' E 139°47'0 0.0
2017-Mar-27 10:29N 35°36' E 139°47'0 0.0
2017-Mar-27 09:32N 35°36' E 139°47'0 0.0
2017-Mar-27 08:32N 35°36' E 139°47'0 0.0
2017-Mar-27 07:29N 35°36' E 139°47'0 0.0
2017-Mar-27 06:29N 35°36' E 139°47'0 0.0
2017-Mar-27 05:32N 35°36' E 139°47'0 0.0
2017-Mar-27 04:23N 35°36' E 139°47'0 0.2
2017-Mar-27 03:33N 35°36' E 139°47'9 8.6
2017-Mar-27 02:34N 35°28' E 139°51'1211.7
2017-Mar-27 01:33N 35°17' E 139°46'10 9.5
2017-Mar-27 00:33N 35°07' E 139°46'134254.6
2017-Mar-26 00:00N 13°42' E 132°42'94452.4 010 / 171007.210.8 15.1 9.9
2017-Mar-25 06:00N 28°24' E 126°42'12520.8 330 / 311008.6 5.4 16.013.1
2017-Mar-25 00:00N 27°18' E 124°42'35019.4 360 / 201009.210.8 15.0 9.215.0
2017-Mar-24 06:00N 23°24' E 119°54'3815.3 020 / 191007.010.8 28.017.8
2017-Mar-24 03:31N 22°48' E 120°05'1718.0
2017-Mar-24 02:33N 22°33' E 120°15'4 3.5
2017-Mar-24 01:31N 22°34' E 120°18'0 0.0
2017-Mar-24 00:31N 22°34' E 120°18'0 0.0
2017-Mar-23 23:31N 22°34' E 120°18'0 0.0
2017-Mar-23 22:31N 22°34' E 120°18'0 0.0
2017-Mar-23 21:31N 22°34' E 120°18'0 0.0
2017-Mar-23 19:31N 22°34' E 120°18'0 0.0
2017-Mar-23 18:31N 22°34' E 120°18'0 0.1
2017-Mar-23 17:33N 22°34' E 120°18'4 4.5
2017-Mar-23 16:33N 22°32' E 120°14'3 3.4
2017-Mar-23 15:33N 22°32' E 120°11'2 2.3
2017-Mar-23 14:33N 22°31' E 120°09'6 6.5
2017-Mar-23 13:33N 22°31' E 120°02'9 9.4
2017-Mar-23 12:34N 22°29' E 119°51'13820.9
2017-Mar-23 06:00N 22°12' E 117°24'18317.4 350 / 101005.510.8 26.025.3
2017-Mar-22 19:28N 22°19' E 114°07'328 7.6
2017-Mar-21 00:00N 17°18' E 111°48'44218.4 110 / 201003.010.8 28.023.727.0
2017-Mar-20 00:00N 10°12' E 109°48'45018.7 090 / 201002.010.8 28.023.727.5
2017-Mar-19 00:00N 03°54' E 105°42'18617.0 040 / 201001.010.8 27.022.627.0
2017-Mar-18 13:05N 01°15' E 104°06'917.7
2017-Mar-18 12:33N 01°14' E 103°57'1110.8
2017-Mar-18 11:33N 01°14' E 103°47'2 1.7
2017-Mar-18 10:32N 01°16' E 103°47'0 0.0
2017-Mar-18 09:32N 01°16' E 103°47'0 0.0
2017-Mar-18 08:32N 01°16' E 103°47'0 0.0
2017-Mar-18 07:32N 01°16' E 103°47'0 0.0
2017-Mar-18 06:32N 01°16' E 103°47'0 0.0
2017-Mar-18 05:32N 01°16' E 103°47'0 0.0
2017-Mar-18 04:32N 01°16' E 103°47'0 0.0
2017-Mar-18 03:32N 01°16' E 103°47'0 0.0
2017-Mar-18 02:29N 01°16' E 103°47'0 0.0
2017-Mar-18 01:29N 01°16' E 103°47'0 0.0
2017-Mar-18 00:32N 01°16' E 103°47'0 0.0
2017-Mar-17 23:32N 01°16' E 103°47'0 0.0
2017-Mar-17 22:29N 01°16' E 103°47'  
Track history (hours):
 
Tides and Currents Weather Stations Pressure Air Temp Water Temp Dewpoint Dewpoint Depression Visibility Wind Speed Wind Dir Waves Ship Positions

OOCL Nagoya

Last reported at 2017-Mar-27 22:05 UTC. Time now 2017-Mar-28 17:50 UTC.
Position N 34°55' E 139°22'.

Length 261 m; draft 10.1 m.

Type: Cargo ship. MMSI: 477627900.

Date/timePositionNaut miles runAvg speedWind from/ knotsBaromVisibWave heightAir tempDewpointWater temp
2017-Mar-27 22:05N 34°55' E 139°22'1121.2
2017-Mar-27 21:33N 35°01' E 139°33'1716.6
2017-Mar-27 20:33N 35°14' E 139°46'1212.1
2017-Mar-27 19:33N 35°26' E 139°45'1010.3
2017-Mar-27 18:34N 35°36' E 139°47'0 0.2
2017-Mar-27 17:29N 35°36' E 139°47'0 0.0
2017-Mar-27 16:32N 35°36' E 139°47'0 0.0
2017-Mar-27 15:32N 35°36' E 139°47'0 0.0
2017-Mar-27 14:32N 35°36' E 139°47'0 0.0
2017-Mar-27 13:23N 35°36' E 139°47'0 0.0
2017-Mar-27 12:32N 35°36' E 139°47'0 0.0
2017-Mar-27 11:29N 35°36' E 139°47'0 0.0
2017-Mar-27 10:29N 35°36' E 139°47'0 0.0
2017-Mar-27 09:32N 35°36' E 139°47'0 0.0
2017-Mar-27 08:32N 35°36' E 139°47'0 0.0
2017-Mar-27 07:29N 35°36' E 139°47'0 0.0
2017-Mar-27 06:29N 35°36' E 139°47'0 0.0
2017-Mar-27 05:32N 35°36' E 139°47'0 0.0
2017-Mar-27 04:23N 35°36' E 139°47'0 0.2
2017-Mar-27 03:33N 35°36' E 139°47'9 8.6
2017-Mar-27 02:34N 35°28' E 139°51'1211.7
2017-Mar-27 01:33N 35°17' E 139°46'10 9.5
2017-Mar-27 00:33N 35°07' E 139°46'134254.6
2017-Mar-26 00:00N 13°42' E 132°42'94452.4 010 / 171007.210.8 15.1 9.9
2017-Mar-25 06:00N 28°24' E 126°42'12520.8 330 / 311008.6 5.4 16.013.1
2017-Mar-25 00:00N 27°18' E 124°42'35019.4 360 / 201009.210.8 15.0 9.215.0
2017-Mar-24 06:00N 23°24' E 119°54'3815.3 020 / 191007.010.8 28.017.8
2017-Mar-24 03:31N 22°48' E 120°05'1718.0
2017-Mar-24 02:33N 22°33' E 120°15'4 3.5
2017-Mar-24 01:31N 22°34' E 120°18'0 0.0
2017-Mar-24 00:31N 22°34' E 120°18'0 0.0
2017-Mar-23 23:31N 22°34' E 120°18'0 0.0
2017-Mar-23 22:31N 22°34' E 120°18'0 0.0
2017-Mar-23 21:31N 22°34' E 120°18'0 0.0
2017-Mar-23 19:31N 22°34' E 120°18'0 0.0
2017-Mar-23 18:31N 22°34' E 120°18'0 0.1
2017-Mar-23 17:33N 22°34' E 120°18'4 4.5
2017-Mar-23 16:33N 22°32' E 120°14'3 3.4
2017-Mar-23 15:33N 22°32' E 120°11'2 2.3
2017-Mar-23 14:33N 22°31' E 120°09'6 6.5
2017-Mar-23 13:33N 22°31' E 120°02'9 9.4
2017-Mar-23 12:34N 22°29' E 119°51'13820.9
2017-Mar-23 06:00N 22°12' E 117°24'18317.4 350 / 101005.510.8 26.025.3
2017-Mar-22 19:28N 22°19' E 114°07'328 7.6
2017-Mar-21 00:00N 17°18' E 111°48'44218.4 110 / 201003.010.8 28.023.727.0
2017-Mar-20 00:00N 10°12' E 109°48'45018.7 090 / 201002.010.8 28.023.727.5
2017-Mar-19 00:00N 03°54' E 105°42'18617.0 040 / 201001.010.8 27.022.627.0
2017-Mar-18 13:05N 01°15' E 104°06'917.7
2017-Mar-18 12:33N 01°14' E 103°57'1110.8
2017-Mar-18 11:33N 01°14' E 103°47'2 1.7
2017-Mar-18 10:32N 01°16' E 103°47'0 0.0
2017-Mar-18 09:32N 01°16' E 103°47'0 0.0
2017-Mar-18 08:32N 01°16' E 103°47'0 0.0
2017-Mar-18 07:32N 01°16' E 103°47'0 0.0
2017-Mar-18 06:32N 01°16' E 103°47'0 0.0
2017-Mar-18 05:32N 01°16' E 103°47'0 0.0
2017-Mar-18 04:32N 01°16' E 103°47'0 0.0
2017-Mar-18 03:32N 01°16' E 103°47'0 0.0
2017-Mar-18 02:29N 01°16' E 103°47'0 0.0
2017-Mar-18 01:29N 01°16' E 103°47'0 0.0
2017-Mar-18 00:32N 01°16' E 103°47'0 0.0
2017-Mar-17 23:32N 01°16' E 103°47'0 0.0
2017-Mar-17 22:29N 01°16' E 103°47'  

Dump ship's entire track history